createdAt,value
2022-12-16T00:00:38.914Z,-2.10
2022-12-16T00:03:47.991Z,-3.00
2022-12-16T00:06:51.156Z,-2.40
2022-12-16T00:09:55.524Z,-2.30
2022-12-16T00:12:58.783Z,-3.10
2022-12-16T00:16:05.573Z,-3.10
2022-12-16T00:19:10.403Z,-3.00
2022-12-16T00:22:13.875Z,-3.00
2022-12-16T00:25:17.224Z,-3.00
2022-12-16T00:28:22.968Z,-3.00
2022-12-16T00:31:27.392Z,-2.90
2022-12-16T00:34:31.994Z,-2.80
2022-12-16T00:37:35.149Z,-2.60
2022-12-16T00:40:38.389Z,-2.90
2022-12-16T00:43:41.547Z,-2.90
2022-12-16T00:46:44.947Z,-2.20
2022-12-16T00:49:49.535Z,-2.80
2022-12-16T00:52:52.857Z,-2.80
2022-12-16T00:56:04.267Z,-1.80
2022-12-16T00:59:07.395Z,-2.80
2022-12-16T01:02:12.012Z,-2.90
2022-12-16T01:05:19.376Z,-2.90
2022-12-16T01:08:22.836Z,-2.90
2022-12-16T01:11:26.201Z,-2.90
2022-12-16T01:14:29.391Z,-2.90
2022-12-16T01:17:32.670Z,-2.90
2022-12-16T01:20:37.984Z,-2.80
2022-12-16T01:23:41.320Z,-2.90
2022-12-16T01:26:44.472Z,-2.00
2022-12-16T01:29:47.833Z,-2.80
2022-12-16T01:32:51.176Z,-2.80
2022-12-16T01:36:02.323Z,-2.80
2022-12-16T01:39:05.548Z,-2.80
2022-12-16T01:42:12.974Z,-2.80
2022-12-16T01:45:34.335Z,-1.90
2022-12-16T01:48:45.111Z,-2.80
2022-12-16T01:51:55.205Z,-1.90
2022-12-16T01:55:03.308Z,-2.80
2022-12-16T01:58:10.571Z,-2.80
2022-12-16T02:01:16.002Z,-2.70
2022-12-16T02:04:19.284Z,-2.70
2022-12-16T02:07:23.923Z,-2.60
2022-12-16T02:10:35.213Z,-2.70
2022-12-16T02:13:49.426Z,-2.70
2022-12-16T02:16:59.034Z,-2.70
2022-12-16T02:20:40.861Z,-2.70
2022-12-16T02:24:20.010Z,-1.70
2022-12-16T02:27:50.733Z,-2.60
2022-12-16T02:31:12.464Z,-2.60
2022-12-16T02:34:23.440Z,-2.60
2022-12-16T02:37:38.504Z,-1.70
2022-12-16T02:40:46.955Z,-2.60
2022-12-16T02:43:54.802Z,-2.00
2022-12-16T02:47:00.019Z,-2.60
2022-12-16T02:50:03.447Z,-2.60
2022-12-16T02:53:09.731Z,-2.60
2022-12-16T02:56:25.608Z,-2.50
2022-12-16T02:59:36.560Z,-2.60
2022-12-16T03:02:49.499Z,-2.60
2022-12-16T03:05:54.450Z,-2.70
2022-12-16T03:09:00.720Z,-2.70
2022-12-16T03:12:07.030Z,-2.70
2022-12-16T03:15:12.390Z,-2.80
2022-12-16T03:18:18.065Z,-2.80
2022-12-16T03:21:24.394Z,-2.80
2022-12-16T03:24:28.115Z,-2.70
2022-12-16T03:27:40.696Z,-2.70
2022-12-16T03:30:48.865Z,-2.70
2022-12-16T03:34:00.800Z,-2.70
2022-12-16T03:37:07.118Z,-2.70
2022-12-16T03:40:12.785Z,-2.70
2022-12-16T03:43:17.295Z,-2.70
2022-12-16T03:46:20.857Z,-2.80
2022-12-16T03:49:26.194Z,-2.80
2022-12-16T03:52:29.367Z,-2.70
2022-12-16T03:55:32.677Z,-2.70
2022-12-16T03:58:37.834Z,-2.80
2022-12-16T04:01:41.530Z,-2.80
2022-12-16T04:04:46.361Z,-2.80
2022-12-16T04:07:49.749Z,-2.80
2022-12-16T04:11:10.781Z,-2.70
2022-12-16T04:14:31.347Z,-2.70
2022-12-16T04:17:51.989Z,-2.60
2022-12-16T04:21:15.302Z,-1.40
2022-12-16T04:24:20.961Z,-2.90
2022-12-16T04:27:27.726Z,-2.80
2022-12-16T04:30:35.755Z,-2.80
2022-12-16T04:33:56.739Z,-2.90
2022-12-16T04:37:20.781Z,-2.90
2022-12-16T04:40:56.150Z,-2.90
2022-12-16T04:44:16.840Z,-2.80
2022-12-16T04:47:37.897Z,-2.80
2022-12-16T04:50:58.780Z,-2.80
2022-12-16T04:54:21.084Z,-2.80
2022-12-16T04:57:41.922Z,-2.80
2022-12-16T05:01:03.751Z,-1.70
2022-12-16T05:04:24.529Z,-1.90
2022-12-16T05:07:44.974Z,-2.00
2022-12-16T05:11:06.631Z,-2.80
2022-12-16T05:14:27.134Z,-2.70
2022-12-16T05:17:47.464Z,-2.80
2022-12-16T05:21:07.687Z,-2.70
2022-12-16T05:24:28.236Z,-2.80
2022-12-16T05:27:50.232Z,-2.80
2022-12-16T05:31:12.166Z,-2.80
2022-12-16T05:34:33.119Z,-2.70
2022-12-16T05:37:53.746Z,-2.70
2022-12-16T05:41:14.515Z,-2.70
2022-12-16T05:44:36.396Z,-2.10
2022-12-16T05:47:57.824Z,-2.70
2022-12-16T05:51:19.214Z,-2.60
2022-12-16T05:54:39.834Z,-2.70
2022-12-16T05:58:00.305Z,-2.70
2022-12-16T06:01:22.786Z,-2.60
2022-12-16T06:04:43.278Z,-2.60
2022-12-16T06:08:09.991Z,-2.50
2022-12-16T06:11:30.446Z,-2.50
2022-12-16T06:14:51.185Z,-2.50
2022-12-16T06:18:13.118Z,-2.50
2022-12-16T06:21:33.626Z,-2.50
2022-12-16T06:24:54.128Z,-2.50
2022-12-16T06:28:14.533Z,-2.50
2022-12-16T06:31:35.502Z,-2.20
2022-12-16T06:34:57.260Z,-2.40
2022-12-16T06:38:18.055Z,-2.30
2022-12-16T06:41:38.575Z,-2.30
2022-12-16T06:44:58.953Z,-2.30
2022-12-16T06:48:19.271Z,-2.30
2022-12-16T06:51:41.162Z,-2.20
2022-12-16T06:55:01.720Z,-2.20
2022-12-16T06:58:22.687Z,-2.20
2022-12-16T07:01:43.476Z,-2.20
2022-12-16T07:05:04.127Z,-2.10
2022-12-16T07:08:26.103Z,-2.10
2022-12-16T07:11:46.631Z,-2.10
2022-12-16T07:15:07.546Z,-2.10
2022-12-16T07:18:28.165Z,-2.10
2022-12-16T07:21:48.993Z,-2.10
2022-12-16T07:25:10.952Z,-2.10
2022-12-16T07:28:31.839Z,-2.00
2022-12-16T07:31:52.555Z,-2.10
2022-12-16T07:35:13.182Z,-2.00
2022-12-16T07:38:33.685Z,-2.00
2022-12-16T07:41:55.703Z,-1.90
2022-12-16T07:45:16.530Z,-1.90
2022-12-16T07:48:37.184Z,-1.90
2022-12-16T07:51:57.573Z,-1.90
2022-12-16T07:55:17.880Z,-1.80
2022-12-16T07:58:39.967Z,-1.80
2022-12-16T08:02:00.412Z,-0.80
2022-12-16T08:05:21.300Z,-1.60
2022-12-16T08:08:42.025Z,-1.50
2022-12-16T08:12:16.919Z,-1.60
2022-12-16T08:15:39.012Z,-1.60
2022-12-16T08:18:59.526Z,-1.50
2022-12-16T08:22:20.197Z,-1.50
2022-12-16T08:25:40.852Z,-1.50
2022-12-16T08:29:20.281Z,-1.40
2022-12-16T08:32:43.499Z,-1.40
2022-12-16T08:36:04.403Z,-1.40
2022-12-16T08:39:24.726Z,-1.30
2022-12-16T08:42:41.559Z,-1.30
2022-12-16T08:46:02.247Z,-1.30
2022-12-16T08:49:24.529Z,-1.20
2022-12-16T08:52:45.246Z,-1.10
2022-12-16T08:56:06.006Z,-1.00
2022-12-16T08:59:23.089Z,-1.20
2022-12-16T09:02:43.807Z,-1.10
2022-12-16T09:06:05.614Z,-1.10
2022-12-16T09:09:26.427Z,-1.00
2022-12-16T09:12:47.227Z,-1.20
2022-12-16T09:16:07.819Z,-1.10
2022-12-16T09:19:31.465Z,-1.00
2022-12-16T09:22:53.413Z,-0.90
2022-12-16T09:26:15.805Z,-0.90
2022-12-16T09:29:40.546Z,-0.80
2022-12-16T09:33:05.379Z,-0.80
2022-12-16T09:36:26.687Z,-1.00
2022-12-16T09:39:48.690Z,-0.80
2022-12-16T09:43:12.995Z,-0.70
2022-12-16T09:46:42.309Z,-0.60
2022-12-16T09:50:06.866Z,-0.50
2022-12-16T09:53:32.015Z,-0.80
2022-12-16T09:56:55.186Z,-0.70
2022-12-16T10:00:19.938Z,-0.70
2022-12-16T10:03:44.867Z,-0.80
2022-12-16T10:07:07.383Z,-0.80
2022-12-16T10:10:37.840Z,-0.70
2022-12-16T10:14:06.883Z,-0.60
2022-12-16T10:17:31.670Z,-0.80
2022-12-16T10:21:02.177Z,-0.70
2022-12-16T10:24:35.788Z,-0.60
2022-12-16T10:28:02.271Z,-0.60
2022-12-16T10:31:32.650Z,-0.60
2022-12-16T10:34:55.261Z,-0.60
2022-12-16T10:38:16.394Z,-0.70
2022-12-16T10:41:38.011Z,-0.60
2022-12-16T10:45:08.487Z,-0.40
2022-12-16T10:48:31.525Z,-0.60
2022-12-16T10:51:51.403Z,-0.60
2022-12-16T10:55:20.726Z,-0.50
2022-12-16T10:58:47.384Z,-0.40
2022-12-16T11:02:16.436Z,-0.60
2022-12-16T11:05:50.891Z,-0.40
2022-12-16T11:09:11.720Z,-0.60
2022-12-16T11:12:38.256Z,-0.70
2022-12-16T11:16:27.126Z,-0.70
2022-12-16T11:19:48.350Z,-0.80
2022-12-16T11:23:26.819Z,-0.80
2022-12-16T11:26:47.474Z,-0.80
2022-12-16T11:30:10.125Z,-0.80
2022-12-16T11:33:40.058Z,-0.70
2022-12-16T11:37:01.701Z,-0.70
2022-12-16T11:40:25.127Z,-0.60
2022-12-16T11:43:48.028Z,-0.60
2022-12-16T11:47:14.067Z,-0.50
2022-12-16T11:50:40.416Z,-0.40
2022-12-16T11:54:07.396Z,-0.50
2022-12-16T11:57:37.000Z,-0.30
2022-12-16T12:01:08.015Z,-0.30
2022-12-16T12:04:30.173Z,-0.30
2022-12-16T12:07:58.487Z,-0.20
2022-12-16T12:11:27.286Z,-0.20
2022-12-16T12:14:57.363Z,-0.20
2022-12-16T12:18:24.005Z,-0.10
2022-12-16T12:21:45.957Z,-0.10
2022-12-16T12:25:12.589Z,-0.20
2022-12-16T12:28:43.718Z,-0.20
2022-12-16T12:32:12.343Z,0.00
2022-12-16T12:35:48.623Z,0.00
2022-12-16T12:39:22.201Z,0.00
2022-12-16T12:42:54.922Z,0.00
2022-12-16T12:46:25.380Z,0.10
2022-12-16T12:49:54.413Z,0.10
2022-12-16T12:53:33.695Z,-0.10
2022-12-16T12:57:06.016Z,-0.20
2022-12-16T13:00:35.656Z,-0.40
2022-12-16T13:04:03.470Z,-0.50
2022-12-16T13:07:27.122Z,-0.50
2022-12-16T13:10:54.384Z,-0.50
2022-12-16T13:14:17.660Z,-0.50
2022-12-16T13:17:39.490Z,-0.40
2022-12-16T13:21:00.485Z,-0.50
2022-12-16T13:24:39.767Z,-0.40
2022-12-16T13:28:13.227Z,-0.30
2022-12-16T13:31:37.899Z,-0.30
2022-12-16T13:35:01.410Z,-0.30
2022-12-16T13:38:37.725Z,-0.40
2022-12-16T13:42:20.986Z,-0.40
2022-12-16T13:45:50.978Z,-0.40
2022-12-16T13:49:13.108Z,-0.50
2022-12-16T13:52:35.452Z,-0.50
2022-12-16T13:56:01.289Z,-0.40
2022-12-16T13:59:33.517Z,-0.40
2022-12-16T14:02:59.022Z,-0.30
2022-12-16T14:06:22.738Z,-0.40
2022-12-16T14:09:57.474Z,-0.50
2022-12-16T14:13:24.385Z,-0.50
2022-12-16T14:16:54.927Z,-0.60
2022-12-16T14:20:20.363Z,-0.60
2022-12-16T14:23:58.660Z,-0.50
2022-12-16T14:27:24.718Z,-0.60
2022-12-16T14:30:45.558Z,-0.60
2022-12-16T14:34:12.981Z,-0.70
2022-12-16T14:37:35.683Z,-0.70
2022-12-16T14:40:57.544Z,-0.70
2022-12-16T14:44:18.543Z,-0.70
2022-12-16T14:47:40.665Z,-0.70
2022-12-16T14:51:02.572Z,-0.70
2022-12-16T14:54:40.822Z,-0.70
2022-12-16T14:57:58.086Z,-0.70
2022-12-16T15:01:24.490Z,-0.70
2022-12-16T15:04:48.222Z,-0.70
2022-12-16T15:08:25.254Z,-0.70
2022-12-16T15:11:46.414Z,-0.70
2022-12-16T15:15:07.533Z,-0.70
2022-12-16T15:18:36.762Z,-0.70
2022-12-16T15:21:58.109Z,-0.70
2022-12-16T15:25:20.846Z,-0.80
2022-12-16T15:28:44.947Z,-0.60
2022-12-16T15:32:13.669Z,-0.80
2022-12-16T15:35:45.520Z,-0.70
2022-12-16T15:39:06.264Z,-0.80
2022-12-16T15:42:39.141Z,-0.80
2022-12-16T15:46:07.528Z,-0.80
2022-12-16T15:49:38.098Z,-0.70
2022-12-16T15:53:01.765Z,-0.80
2022-12-16T15:56:25.222Z,-0.70
2022-12-16T15:59:49.484Z,-0.70
2022-12-16T16:03:10.489Z,-0.70
2022-12-16T16:06:37.460Z,-0.80
2022-12-16T16:09:58.679Z,-0.70
2022-12-16T16:13:19.814Z,-0.80
2022-12-16T16:16:42.558Z,-0.80
2022-12-16T16:20:04.848Z,-0.80
2022-12-16T16:23:27.234Z,-0.80
2022-12-16T16:26:48.255Z,-0.80
2022-12-16T16:30:08.902Z,-0.80
2022-12-16T16:33:31.571Z,-0.80
2022-12-16T16:36:52.639Z,-0.80
2022-12-16T16:40:13.302Z,-0.80
2022-12-16T16:43:34.514Z,-0.80
2022-12-16T16:46:57.112Z,-0.90
2022-12-16T16:50:19.929Z,-0.90
2022-12-16T16:53:40.414Z,-0.90
2022-12-16T16:57:01.217Z,-0.90
2022-12-16T17:00:23.629Z,-0.90
2022-12-16T17:03:44.903Z,-0.90
2022-12-16T17:07:07.807Z,-0.90
2022-12-16T17:10:28.548Z,-0.90
2022-12-16T17:13:49.226Z,-1.00
2022-12-16T17:17:10.397Z,-1.00
2022-12-16T17:20:34.560Z,-1.00
2022-12-16T17:24:00.243Z,-1.00
2022-12-16T17:27:31.789Z,-1.00
2022-12-16T17:30:55.396Z,-1.00
2022-12-16T17:34:15.908Z,-1.00
2022-12-16T17:37:36.713Z,-1.00
2022-12-16T17:41:00.117Z,-1.10
2022-12-16T17:44:20.815Z,-1.10
2022-12-16T17:47:41.294Z,-1.10
2022-12-16T17:51:01.732Z,-1.20
2022-12-16T17:54:34.157Z,-1.10
2022-12-16T17:57:56.358Z,-1.20
2022-12-16T18:01:20.504Z,-1.20
2022-12-16T18:04:43.590Z,-1.20
2022-12-16T18:08:04.574Z,-1.20
2022-12-16T18:11:25.466Z,-1.20
2022-12-16T18:14:48.329Z,-1.20
2022-12-16T18:18:10.667Z,-1.30
2022-12-16T18:21:32.895Z,-1.30
2022-12-16T18:24:55.693Z,-1.30
2022-12-16T18:28:16.409Z,-1.30
2022-12-16T18:31:39.787Z,-1.40
2022-12-16T18:35:03.366Z,-1.40
2022-12-16T18:38:24.650Z,-1.40
2022-12-16T18:41:47.965Z,-1.50
2022-12-16T18:45:09.088Z,-1.50
2022-12-16T18:48:31.512Z,-1.60
2022-12-16T18:51:52.530Z,-1.60
2022-12-16T18:55:16.550Z,-1.60
2022-12-16T18:58:53.062Z,-1.60
2022-12-16T19:02:14.475Z,-1.60
2022-12-16T19:05:32.974Z,-1.60
2022-12-16T19:08:52.673Z,-1.70
2022-12-16T19:12:13.340Z,-1.70
2022-12-16T19:15:40.872Z,-1.70
2022-12-16T19:19:04.484Z,-1.70
2022-12-16T19:22:26.564Z,-1.80
2022-12-16T19:25:47.473Z,-1.80
2022-12-16T19:29:08.568Z,-1.70
2022-12-16T19:32:30.050Z,-1.80
2022-12-16T19:35:50.863Z,-1.80
2022-12-16T19:39:13.426Z,-1.80
2022-12-16T19:42:33.833Z,-1.80
2022-12-16T19:45:56.414Z,-1.80
2022-12-16T19:49:17.556Z,-1.90
2022-12-16T19:52:39.388Z,-1.90
2022-12-16T19:56:02.438Z,-1.90
2022-12-16T19:59:23.592Z,-2.00
2022-12-16T20:02:56.590Z,-2.00
2022-12-16T20:06:18.897Z,-2.00
2022-12-16T20:09:39.858Z,-2.10
2022-12-16T20:13:03.099Z,-2.00
2022-12-16T20:16:25.748Z,-2.00
2022-12-16T20:19:48.235Z,-2.00
2022-12-16T20:23:09.620Z,-2.00
2022-12-16T20:26:30.006Z,-2.10
2022-12-16T20:29:52.096Z,-2.00
2022-12-16T20:33:13.265Z,-2.00
2022-12-16T20:36:45.809Z,-2.10
2022-12-16T20:40:06.908Z,-2.10
2022-12-16T20:43:33.089Z,-2.00
2022-12-16T20:46:56.263Z,-2.00
2022-12-16T20:50:17.294Z,-2.10
2022-12-16T20:53:53.086Z,-2.10
2022-12-16T20:57:14.181Z,-2.10
2022-12-16T21:00:35.466Z,-2.20
2022-12-16T21:04:12.600Z,-2.10
2022-12-16T21:07:33.648Z,-2.10
2022-12-16T21:10:56.066Z,-2.10
2022-12-16T21:14:17.379Z,-2.20
2022-12-16T21:17:40.827Z,-2.10
2022-12-16T21:21:02.810Z,-2.20
2022-12-16T21:24:24.228Z,-2.20
2022-12-16T21:27:47.886Z,-2.30
2022-12-16T21:31:09.162Z,-2.30
2022-12-16T21:34:29.936Z,-2.30
2022-12-16T21:37:52.022Z,-2.40
2022-12-16T21:41:13.087Z,-2.40
2022-12-16T21:44:33.493Z,-2.40
2022-12-16T21:48:08.371Z,-2.40
2022-12-16T21:51:29.310Z,-2.40
2022-12-16T21:54:51.383Z,-2.40
2022-12-16T21:58:12.424Z,-2.40
2022-12-16T22:01:32.879Z,-2.40
2022-12-16T22:04:56.759Z,-2.40
2022-12-16T22:08:17.994Z,-2.50
2022-12-16T22:11:40.474Z,-2.50
2022-12-16T22:15:03.455Z,-2.50
2022-12-16T22:18:24.053Z,-2.50
2022-12-16T22:21:46.180Z,-2.50
2022-12-16T22:25:14.214Z,-2.50
2022-12-16T22:28:36.943Z,-1.30
2022-12-16T22:31:58.107Z,-2.00
2022-12-16T22:35:18.961Z,-2.50
2022-12-16T22:38:39.655Z,-2.50
2022-12-16T22:42:00.467Z,-2.50
2022-12-16T22:45:26.759Z,-2.50
2022-12-16T22:48:47.762Z,-2.50
2022-12-16T22:52:08.401Z,-2.50
2022-12-16T22:55:30.266Z,-2.60
2022-12-16T22:58:51.560Z,-2.50
2022-12-16T23:02:13.871Z,-2.60
2022-12-16T23:05:34.409Z,-2.60
2022-12-16T23:08:55.385Z,-2.60
2022-12-16T23:12:17.358Z,-2.60
2022-12-16T23:15:38.251Z,-2.60
2022-12-16T23:19:00.429Z,-2.60
2022-12-16T23:22:20.866Z,-2.60
2022-12-16T23:25:41.463Z,-2.60
2022-12-16T23:29:02.529Z,-2.70
2022-12-16T23:32:22.895Z,-2.60
2022-12-16T23:35:44.824Z,-2.60
2022-12-16T23:39:05.228Z,-2.60
2022-12-16T23:42:25.525Z,-2.60
2022-12-16T23:45:42.574Z,-2.70
2022-12-16T23:49:03.316Z,-2.60
2022-12-16T23:52:25.308Z,-2.70
2022-12-16T23:55:45.817Z,-2.10
2022-12-16T23:59:03.475Z,-2.60
